Havana, Ohio
Current Conditions -  °F | °C
As of 9:52 PM on Thursday 27 Nov 2014 (Local Time) from KMFD Reporting Station
Overcast Overcast  
Wind Chill: 20°   Ceiling: 1700
Heat Index: 28°   Visibility: 10mi
Dew Point: 25°   Wind: 8mph
Humidity: 88%   Direction: 280°W
Pressure: 30.24"   Gusts: NA
Location:  41.0768°N, 82.7214°W
Report Text: KMFD 280252Z 28007KT 10SM SCT010 BKN017 OVC041 M02/M04 A3024 RMK AO2 SNB21E35 SLP257 P0000 60003 T10221039 51008
Loading
Personal Weather Stations






























Interactive Weather Map New forecast layout! Learn more

10-Day Weather Forecast

Advertisements
Track Severe Weather on mobile